Terminal Aerodrome Forecast
Issued by NWS Charleston, WV

Current Version | Previous Version | Text Only | Print | Product List | Glossary On
Versions: 1 2 3 4 5 6 7 8 9 10 11 12 13 14 15 16 17 18 19 20 21 22 23 24 25 26 27
627
FTUS41 KRLX 231126
TAFPKB
TAF
KPKB 231126Z 2312/2412 05010KT 6SM -RA OVC045
     FM231300 04010G18KT 4SM -RA OVC023
     FM231500 04010G18KT 3SM -RA OVC012
     FM231600 04009KT 2SM -RA OVC008
     FM232000 04009KT 3SM -RA OVC008
     FM232300 03009KT P6SM OVC011
     FM240700 35006KT P6SM OVC021=

USA.gov is the U.S. government's official web portal to all federal, state and local government web resources and services.